createdAt,value
2019-06-08T21:01:32.047Z,14.78
2019-06-08T21:02:32.008Z,14.64
2019-06-08T21:03:32.051Z,14.63
2019-06-08T21:04:31.937Z,14.67
2019-06-08T21:05:31.981Z,14.54
2019-06-08T21:06:31.982Z,14.59
2019-06-08T21:07:31.978Z,14.53
2019-06-08T21:08:31.886Z,14.45
2019-06-08T21:09:31.850Z,14.46
2019-06-08T21:10:31.993Z,14.41
2019-06-08T21:11:31.919Z,14.45
2019-06-08T21:12:31.816Z,14.36
2019-06-08T21:13:31.850Z,14.29
2019-06-08T21:14:31.856Z,14.30
2019-06-08T21:15:31.785Z,14.30
2019-06-08T21:16:31.806Z,14.26
2019-06-08T21:17:31.930Z,14.26
2019-06-08T21:18:31.759Z,14.21
2019-06-08T21:19:31.803Z,14.26
2019-06-08T21:20:31.773Z,14.04
2019-06-08T21:21:31.721Z,14.05
2019-06-08T21:22:31.739Z,14.08
2019-06-08T21:23:32.263Z,13.98
2019-06-08T21:24:31.690Z,13.96
2019-06-08T21:25:31.672Z,14.01
2019-06-08T21:26:31.676Z,13.96
2019-06-08T21:27:31.689Z,13.99
2019-06-08T21:28:31.662Z,13.94
2019-06-08T21:29:46.999Z,13.86
2019-06-08T21:30:32.633Z,13.83
2019-06-08T21:31:31.610Z,13.83
2019-06-08T21:32:31.614Z,13.80
2019-06-08T21:33:31.633Z,13.76
2019-06-08T21:34:31.583Z,13.72
2019-06-08T21:35:31.562Z,13.66
2019-06-08T21:36:31.553Z,13.69
2019-06-08T21:37:31.588Z,13.63
2019-06-08T21:38:31.532Z,13.65
2019-06-08T21:39:31.566Z,13.50
2019-06-08T21:40:31.525Z,13.55
2019-06-08T21:41:31.517Z,13.48
2019-06-08T21:42:31.507Z,13.46
2019-06-08T21:43:31.476Z,13.43
2019-06-08T21:44:31.504Z,13.44
2019-06-08T21:45:31.454Z,13.47
2019-06-08T21:46:31.445Z,13.32
2019-06-08T21:47:31.461Z,13.36
2019-06-08T21:48:31.454Z,13.29
2019-06-08T21:49:31.437Z,13.32
2019-06-08T21:50:31.414Z,13.35
2019-06-08T21:51:31.385Z,13.35
2019-06-08T21:52:31.390Z,13.31
2019-06-08T21:53:31.380Z,13.27
2019-06-08T21:54:31.387Z,13.32
2019-06-08T21:55:31.348Z,13.32
2019-06-08T21:56:31.347Z,13.32
2019-06-08T21:57:31.359Z,13.28
2019-06-08T21:58:31.319Z,13.35
2019-06-08T21:59:31.311Z,13.31
2019-06-08T22:00:39.360Z,13.28
2019-06-08T22:01:32.280Z,13.25
2019-06-08T22:02:31.270Z,13.19
2019-06-08T22:03:31.345Z,13.16
2019-06-08T22:04:31.301Z,13.17
2019-06-08T22:05:31.257Z,13.13
2019-06-08T22:06:31.226Z,13.04
2019-06-08T22:07:31.214Z,13.01
2019-06-08T22:08:31.251Z,13.09
2019-06-08T22:09:31.214Z,12.98
2019-06-08T22:10:31.181Z,12.94
2019-06-08T22:11:31.171Z,12.95
2019-06-08T22:12:31.177Z,12.85
2019-06-08T22:13:31.183Z,12.88
2019-06-08T22:14:31.226Z,12.85
2019-06-08T22:15:31.144Z,12.88
2019-06-08T22:16:31.147Z,12.85
2019-06-08T22:17:31.158Z,12.99
2019-06-08T22:18:31.100Z,12.96
2019-06-08T22:19:31.097Z,12.80
2019-06-08T22:20:31.103Z,12.85
2019-06-08T22:21:31.068Z,12.94
2019-06-08T22:22:31.050Z,12.85
2019-06-08T22:23:31.060Z,12.81
2019-06-08T22:24:31.033Z,12.95
2019-06-08T22:25:33.282Z,12.81
2019-06-08T22:26:31.009Z,12.80
2019-06-08T22:27:31.011Z,12.94
2019-06-08T22:28:31.003Z,12.71
2019-06-08T22:29:30.985Z,12.87
2019-06-08T22:30:39.310Z,12.89
2019-06-08T22:31:31.952Z,12.76
2019-06-08T22:32:30.949Z,12.80
2019-06-08T22:33:30.930Z,12.79
2019-06-08T22:34:30.926Z,12.79
2019-06-08T22:35:30.951Z,12.88
2019-06-08T22:36:30.952Z,12.77
2019-06-08T22:37:30.898Z,12.85
2019-06-08T22:38:30.900Z,12.81
2019-06-08T22:39:30.862Z,12.89
2019-06-08T22:40:30.899Z,12.87
2019-06-08T22:41:30.874Z,12.94
2019-06-08T22:42:30.835Z,12.91
2019-06-08T22:43:30.834Z,12.91
2019-06-08T22:44:30.830Z,12.81
2019-06-08T22:45:30.838Z,12.79
2019-06-08T22:46:30.785Z,12.87
2019-06-08T22:47:30.785Z,12.92
2019-06-08T22:48:30.766Z,12.85
2019-06-08T22:49:30.768Z,12.84
2019-06-08T22:50:30.807Z,12.80
2019-06-08T22:51:30.734Z,12.76
2019-06-08T22:52:30.775Z,12.87
2019-06-08T22:53:30.712Z,12.77
2019-06-08T22:54:30.699Z,12.74
2019-06-08T22:55:30.694Z,12.74
2019-06-08T22:56:30.685Z,12.73
2019-06-08T22:57:31.090Z,12.69
2019-06-08T22:58:30.678Z,12.62
2019-06-08T22:59:30.644Z,12.63
2019-06-08T23:00:31.575Z,12.61
2019-06-08T23:01:30.667Z,12.51
2019-06-08T23:02:30.614Z,12.49
2019-06-08T23:03:30.608Z,12.46
2019-06-08T23:04:30.594Z,12.41
2019-06-08T23:05:30.585Z,12.46
2019-06-08T23:06:30.620Z,12.48
2019-06-08T23:07:32.753Z,12.43
2019-06-08T23:08:30.579Z,12.37
2019-06-08T23:09:30.567Z,12.49
2019-06-08T23:10:30.529Z,12.52
2019-06-08T23:11:30.533Z,12.54
2019-06-08T23:12:30.542Z,12.44
2019-06-08T23:13:30.497Z,12.41
2019-06-08T23:14:30.504Z,12.52
2019-06-08T23:15:30.472Z,12.49
2019-06-08T23:16:30.469Z,12.51
2019-06-08T23:17:30.464Z,12.48
2019-06-08T23:18:30.481Z,12.36
2019-06-08T23:19:30.432Z,12.37
2019-06-08T23:20:30.423Z,12.41
2019-06-08T23:21:30.408Z,12.41
2019-06-08T23:22:30.403Z,12.43
2019-06-08T23:23:30.421Z,12.46
2019-06-08T23:24:30.406Z,12.43
2019-06-08T23:25:30.364Z,12.25
2019-06-08T23:26:30.374Z,12.26
2019-06-08T23:27:30.343Z,12.23
2019-06-08T23:28:30.346Z,12.26
2019-06-08T23:29:30.351Z,12.26
2019-06-08T23:30:30.317Z,12.19
2019-06-08T23:31:30.309Z,12.23
2019-06-08T23:32:30.289Z,12.22
2019-06-08T23:33:30.281Z,12.22
2019-06-08T23:34:30.299Z,12.13
2019-06-08T23:35:46.714Z,12.16
2019-06-08T23:36:47.149Z,12.11
2019-06-08T23:37:31.231Z,12.11
2019-06-08T23:38:30.229Z,12.07
2019-06-08T23:39:30.257Z,12.04
2019-06-08T23:40:30.203Z,11.97
2019-06-08T23:41:30.198Z,11.88
2019-06-08T23:42:30.179Z,11.94
2019-06-08T23:43:30.178Z,11.90
2019-06-08T23:44:30.173Z,11.94
2019-06-08T23:45:30.185Z,11.82
2019-06-08T23:46:30.141Z,11.84
2019-06-08T23:47:30.157Z,11.82
2019-06-08T23:48:30.114Z,11.78
2019-06-08T23:49:30.110Z,11.67
2019-06-08T23:50:30.156Z,11.74
2019-06-08T23:51:30.085Z,11.69
2019-06-08T23:52:30.072Z,11.79
2019-06-08T23:53:30.070Z,11.69
2019-06-08T23:54:30.057Z,11.72
2019-06-08T23:55:30.039Z,11.79
2019-06-08T23:56:30.075Z,11.85
2019-06-08T23:57:30.025Z,11.85
2019-06-08T23:58:30.006Z,11.79
2019-06-08T23:59:30.003Z,11.90
